Sign in

Goboko Update

On the 31st December 2018 and 1st January 2019 we'll be migrating to a new Goboko platform and booking operations will not be possible

The new iPhone app will be available in March 2019

In the meantime, mobile device users can continue to use Goboko through a browser

Info

Aviation weather

METAR EGKB 221450Z 22004KT 9999 FEW020 04/M00 Q0999

TAF TAF AMD EGKB 221500Z 2215/2223 23008KT 9999 FEW020 TEMPO 2215/2218 6000 -SHRA BKN010 PROB30 TEMPO 2215/2218 2000 SHRA -SHSN BKN004 PROB30 TEMPO 2218/2220 2000 -SHSN BKN005

Aviation weather from ADDS. Re-check weather before flight.

-